Airfield :
LOGIN :

Register | Disclaimer

   EN    FR    IT 

 










Legend :    VFR   Marginal VFR   IFR   Intensive IFR   Very Intensive IFR
Visi :
Ceiling :
>= 8 km
>= 3000ft
5 to 8 km
1000 to 3000 ft
1500m to 5 km
500 to 1000 ft
800 to 1500m
200 to 500 ft
< 800m
< 200 ft
Symbols :   Thunderstorms  Fog  Heavy snow  Heavy precipitations  Wind > 20 kt
SIGMETs :     Misc.  Thunderstorms  Icing  Turbulence  Mountain Waves  Volcanic Ashes







- Airport Elevation : 1046 ft
- IATA code : NUE


EDDN - Nuremberg

CURRENT METAR :
  • 150020Z 19009KT 9999 FEW016 OVC023 04/01 Q0994 R28/29//95 NOSIG

EXPIRED METARs :
  • 142350Z 18006KT 9999 FEW017 OVC025 04/01 Q0993 R28/29//95 NOSIG
  • 142320Z 18005KT 9999 -SHRA FEW017 BKN024 04/01 Q0994 R28/29//95 NOSIG
  • 142250Z 19007KT 9999 -SHRA FEW017 BKN022 04/01 Q0994 R28/29//95 NOSIG
  • 142220Z 20008KT 160V230 9999 -SHRA FEW020 BKN024 04/01 Q0994 R28/29//95 NOSIG
  • 142150Z 20008KT 170V230 9999 -SHRA BKN024 BKN055 04/01 Q0995 R28/29//95 NOSIG

TAF TAF EDDN
Valid from the 15 at 00:00 until the 16 at 00:00 UTC


142300Z 1500/1524 16007KT 9999 BKN015
TEMPO 1500/1506 4000 RASN BKN010
BECMG 1501/1502 24010KT
PROB30
TEMPO 1502/1506 27020G35KT 2000 SHSNGS BKN004 BKN010TCU
PROB30
TEMPO 1512/1518 27015G25KT 2000 SHSNRA BKN012TCU
BECMG 1514/1516 24005KT
No reported NOTAMs for that airfield.



MET'MAP, your aeronautical weather chart ! - Copyright ORBIFLY December 2007 - Disclaimer

ORBIFLY MET'MAP TEAM :

Programming & Development : Alexandra Zaïnal
Concept & Development : Baudouin d'Aumeries
Co-Development & Prog : Marc-Olivier Méhu
Technical & hardware support : Manuel Goepfert

Contact : metmap@orbifly.com




SOURCES & CREDITS :

   NOAA